KPHD/PHD METAR and TAF weather

Enter ICAO airport designator
Station Type Date Time Source
KPHD METAR 2024/06/14 21:53 UTC NOAA

KPHD 142153Z AUTO 01006KT 10SM FEW050 BKN075 BKN090 28/16 A2992 RMK AO2 SLP124 T02780156


Station Type Date Time Source
KPHD Decoded METAR 2024/06/14 21:53 UTC NOAA

NEW PHILADELPHIA CLEVER FLD, OH, United States (KPHD) 40-28N 81-25W 272M
Jun 14, 2024 - 05:53 PM EDT / 2024.06.14 2153 UTC
Wind: from the N (010 degrees) at 7 MPH (6 KT):0
Visibility: 10 mile(s):0
Sky conditions: mostly cloudy
Temperature: 82.0 F (27.8 C)
Dew Point: 60.1 F (15.6 C)
Relative Humidity: 47%
Pressure (altimeter): 29.92 in. Hg (1013 hPa)
ob: KPHD 142153Z AUTO 01006KT 10SM FEW050 BKN075 BKN090 28/16 A2992 RMK AO2 SLP124 T02780156
cycle: 22

Station Type Date Time Source
KPHD TAF UTC NOAA

Error!

Example: see airport list